Time;durP1;ratioP1;P1;durP2;ratioP2;P2;SDS_P1;SDS_P2;PMS_P1;PMS_P2;Temp;Humidity;BMP_temperature;BMP_pressure;BME280_temperature;BME280_humidity;BME280_pressure;Samples;Min_cycle;Max_cycle;Signal;HPM_P1;HPM_P2
2022/09/18 00:01:21;;;;;;;;;;;9.80;99.90;;;;;;5009727;28;19924;-28
2022/09/18 00:03:47;;;;;;;;;;;9.80;99.90;;;;;;5021002;28;19987;-28
2022/09/18 00:06:23;;;;;;;;;;;9.90;99.90;;;;;;5017256;28;19964;-28
2022/09/18 00:08:51;;;;;;;;;;;9.90;99.90;;;;;;5019155;28;19917;-28
2022/09/18 00:11:19;;;;;;;;;;;10.00;99.90;;;;;;5014967;28;19974;-28
2022/09/18 00:13:45;;;;;;;;;;;10.10;99.90;;;;;;5015380;28;19939;-28
2022/09/18 00:16:12;;;;;;;;;;;10.00;99.90;;;;;;5030291;28;19920;-28
2022/09/18 00:18:37;;;;;;;;;;;10.00;99.90;;;;;;5023308;28;19968;-28
2022/09/18 00:21:08;;;;;;;;;;;10.00;99.90;;;;;;5007668;28;19948;-28
2022/09/18 00:23:34;;;;;;;;;;;10.00;99.90;;;;;;5018662;28;19920;-28
2022/09/18 00:25:59;;;;;;;;;;;10.00;99.90;;;;;;5019817;28;19948;-28
2022/09/18 00:28:25;;;;;;;;;;;9.90;99.90;;;;;;5016555;28;20362;-28
2022/09/18 00:30:52;;;;;;;;;;;9.90;99.90;;;;;;5018525;28;19923;-28
2022/09/18 00:33:18;;;;;;;;;;;9.80;99.90;;;;;;5017944;28;19920;-28
2022/09/18 00:35:44;;;;;;;;;;;9.80;99.90;;;;;;5018129;28;19932;-28
2022/09/18 00:38:10;;;;;;;;;;;9.80;99.90;;;;;;5021212;28;19999;-28
2022/09/18 00:40:36;;;;;;;;;;;9.80;99.90;;;;;;5013098;28;20016;-28
2022/09/18 00:43:22;;;;;;;;;;;9.80;99.90;;;;;;5013427;28;20260;-28
2022/09/18 00:45:53;;;;;;;;;;;9.80;99.90;;;;;;5015464;28;19925;-28
2022/09/18 00:48:19;;;;;;;;;;;9.70;99.90;;;;;;5033819;28;19916;-28
2022/09/18 00:50:45;;;;;;;;;;;9.70;99.90;;;;;;5012313;28;19918;-28
2022/09/18 00:53:11;;;;;;;;;;;9.70;99.90;;;;;;5020493;28;19920;-28
2022/09/18 00:55:37;;;;;;;;;;;9.70;99.90;;;;;;5013191;28;19920;-28
2022/09/18 00:58:03;;;;;;;;;;;9.70;99.90;;;;;;5014674;28;20379;-28
2022/09/18 01:00:30;;;;;;;;;;;9.70;99.90;;;;;;5015863;28;19940;-28
2022/09/18 01:03:00;;;;;;;;;;;9.70;99.90;;;;;;5018524;28;20382;-28
2022/09/18 01:05:28;;;;;;;;;;;9.70;99.90;;;;;;5017145;28;19917;-28
2022/09/18 01:07:57;;;;;;;;;;;9.70;99.90;;;;;;5019180;28;19924;-28
2022/09/18 01:10:26;;;;;;;;;;;9.80;99.90;;;;;;5015914;28;20289;-28
2022/09/18 01:12:52;;;;;;;;;;;9.80;99.90;;;;;;5036573;28;19921;-29
2022/09/18 01:15:21;;;;;;;;;;;9.90;99.90;;;;;;5002976;28;20326;-28
2022/09/18 01:18:22;;;;;;;;;;;9.90;99.90;;;;;;5034630;28;20390;-29
2022/09/18 01:21:07;;;;;;;;;;;10.00;99.90;;;;;;4947138;29;20050;-29
2022/09/18 01:23:39;;;;;;;;;;;10.00;99.90;;;;;;5016065;28;19960;-29
2022/09/18 01:26:11;;;;;;;;;;;10.00;99.90;;;;;;5016503;28;20256;-29
2022/09/18 01:28:45;;;;;;;;;;;10.10;99.90;;;;;;5020666;28;19917;-30
2022/09/18 01:31:20;;;;;;;;;;;10.10;99.90;;;;;;5028276;28;19923;-30
2022/09/18 01:33:50;;;;;;;;;;;10.20;99.90;;;;;;5018152;28;19924;-28
2022/09/18 01:36:18;;;;;;;;;;;10.20;99.90;;;;;;4998523;28;20334;-29
2022/09/18 01:38:47;;;;;;;;;;;10.30;99.90;;;;;;5018642;28;19917;-29
2022/09/18 01:41:33;;;;;;;;;;;10.30;99.90;;;;;;5022133;28;20003;-29
2022/09/18 01:44:08;;;;;;;;;;;10.30;99.90;;;;;;5030717;28;19979;-29
2022/09/18 01:46:36;;;;;;;;;;;10.40;99.90;;;;;;5022411;28;19995;-29
2022/09/18 01:49:04;;;;;;;;;;;10.40;99.90;;;;;;5017877;28;20290;-29
2022/09/18 01:51:35;;;;;;;;;;;10.50;99.90;;;;;;4999297;28;20390;-29
2022/09/18 01:54:12;;;;;;;;;;;10.50;99.90;;;;;;5014838;28;19967;-29
2022/09/18 01:56:59;;;;;;;;;;;10.50;99.90;;;;;;5011013;28;19921;-29
2022/09/18 01:59:58;;;;;;;;;;;10.50;99.90;;;;;;4989262;28;20012;-29
2022/09/18 02:02:27;;;;;;;;;;;10.50;99.90;;;;;;4977341;28;19917;-28
2022/09/18 02:04:56;;;;;;;;;;;10.60;99.90;;;;;;5023226;28;20267;-28
2022/09/18 02:07:31;;;;;;;;;;;10.60;99.90;;;;;;5006062;28;19967;-28
2022/09/18 02:09:58;;;;;;;;;;;10.60;99.90;;;;;;5009585;28;19970;-28
2022/09/18 02:12:25;;;;;;;;;;;10.60;99.90;;;;;;5009195;28;19917;-28
2022/09/18 02:14:52;;;;;;;;;;;10.60;99.90;;;;;;5002908;28;20015;-28
2022/09/18 02:17:24;;;;;;;;;;;10.60;99.90;;;;;;5010721;28;20055;-28
2022/09/18 02:19:53;;;;;;;;;;;10.60;99.90;;;;;;5012924;28;19917;-28
2022/09/18 02:22:20;;;;;;;;;;;10.60;99.90;;;;;;4995640;28;19917;-28
2022/09/18 02:24:47;;;;;;;;;;;10.60;99.90;;;;;;5009651;28;20402;-28
2022/09/18 02:27:14;;;;;;;;;;;10.60;99.90;;;;;;5036771;28;19917;-28
2022/09/18 02:29:41;;;;;;;;;;;10.60;99.90;;;;;;5014672;28;20190;-28
2022/09/18 02:32:07;;;;;;;;;;;10.70;99.90;;;;;;5012559;28;19921;-28
2022/09/18 02:34:33;;;;;;;;;;;10.70;99.90;;;;;;4998804;28;20020;-28
2022/09/18 02:36:58;;;;;;;;;;;10.70;99.90;;;;;;5020248;28;19924;-28
2022/09/18 02:39:37;;;;;;;;;;;10.70;99.90;;;;;;5025015;28;19917;-28
2022/09/18 02:42:05;;;;;;;;;;;10.60;99.90;;;;;;5019132;28;19917;-29
2022/09/18 02:44:31;;;;;;;;;;;10.60;99.90;;;;;;5022586;28;19932;-29
2022/09/18 02:47:00;;;;;;;;;;;10.60;99.90;;;;;;5024254;28;19923;-28
2022/09/18 02:49:26;;;;;;;;;;;10.70;99.90;;;;;;5027251;28;19921;-28
2022/09/18 02:51:55;;;;;;;;;;;10.70;99.90;;;;;;5007347;28;19917;-28
2022/09/18 02:54:23;;;;;;;;;;;10.70;99.90;;;;;;5011918;28;20016;-28
2022/09/18 02:56:52;;;;;;;;;;;10.70;99.90;;;;;;5018825;28;20004;-29
2022/09/18 02:59:37;;;;;;;;;;;10.70;99.90;;;;;;5017079;28;19925;-28
2022/09/18 03:02:05;;;;;;;;;;;10.70;99.90;;;;;;5015710;28;19917;-28
2022/09/18 03:04:30;;;;;;;;;;;10.80;99.90;;;;;;5017896;28;19917;-28
2022/09/18 03:06:56;;;;;;;;;;;10.80;99.90;;;;;;5014294;28;19917;-28
2022/09/18 03:09:22;;;;;;;;;;;10.80;99.90;;;;;;5019536;28;19999;-28
2022/09/18 03:11:52;;;;;;;;;;;10.80;99.90;;;;;;5022999;28;19999;-28
2022/09/18 03:14:18;;;;;;;;;;;10.70;99.90;;;;;;5007475;28;19974;-28
2022/09/18 03:16:44;;;;;;;;;;;10.80;99.90;;;;;;5011132;28;19921;-30
2022/09/18 03:19:10;;;;;;;;;;;10.80;99.90;;;;;;5023579;28;19962;-31
2022/09/18 03:21:36;;;;;;;;;;;10.80;99.90;;;;;;5023592;28;20268;-30
2022/09/18 03:24:02;;;;;;;;;;;10.80;99.90;;;;;;5015486;28;19917;-30
2022/09/18 03:26:27;;;;;;;;;;;10.80;99.90;;;;;;5017814;28;20374;-31
2022/09/18 03:28:53;;;;;;;;;;;10.80;99.90;;;;;;5019790;28;20371;-30
2022/09/18 03:31:19;;;;;;;;;;;10.80;99.90;;;;;;5027258;28;20261;-30
2022/09/18 03:33:44;;;;;;;;;;;10.80;99.90;;;;;;5017496;28;19952;-30
2022/09/18 03:36:10;;;;;;;;;;;10.90;99.90;;;;;;5017476;28;20011;-31
2022/09/18 03:38:39;;;;;;;;;;;10.90;99.90;;;;;;5017527;28;19917;-31
2022/09/18 03:41:06;;;;;;;;;;;10.90;99.90;;;;;;5015522;28;19916;-30
2022/09/18 03:43:33;;;;;;;;;;;10.90;99.90;;;;;;5015968;28;20371;-30
2022/09/18 03:45:59;;;;;;;;;;;10.90;99.90;;;;;;5014777;28;19963;-30
2022/09/18 03:48:25;;;;;;;;;;;10.90;99.90;;;;;;5016682;28;20290;-30
2022/09/18 03:50:50;;;;;;;;;;;10.90;99.90;;;;;;5002079;28;19917;-31
2022/09/18 03:53:16;;;;;;;;;;;10.90;99.90;;;;;;5023831;28;20383;-31
2022/09/18 03:55:42;;;;;;;;;;;10.90;99.90;;;;;;5040942;28;19921;-30
2022/09/18 03:58:07;;;;;;;;;;;10.90;99.90;;;;;;5012263;28;20011;-30
2022/09/18 04:00:33;;;;;;;;;;;10.90;99.90;;;;;;5021240;28;19917;-30
2022/09/18 04:02:59;;;;;;;;;;;10.90;99.90;;;;;;5016265;28;20362;-30
2022/09/18 04:05:24;;;;;;;;;;;10.90;99.90;;;;;;5014968;28;20031;-31
2022/09/18 04:07:50;;;;;;;;;;;10.90;99.90;;;;;;5024191;28;19924;-30
2022/09/18 04:10:16;;;;;;;;;;;10.90;99.90;;;;;;5021066;28;19916;-30
2022/09/18 04:12:46;;;;;;;;;;;10.90;99.90;;;;;;5013254;28;20434;-31
2022/09/18 04:15:13;;;;;;;;;;;10.90;99.90;;;;;;5016238;28;19948;-30
2022/09/18 04:17:38;;;;;;;;;;;10.90;99.90;;;;;;5020621;28;19956;-30
2022/09/18 04:20:04;;;;;;;;;;;10.90;99.90;;;;;;5011157;28;19940;-30
2022/09/18 04:22:30;;;;;;;;;;;10.80;99.90;;;;;;5012867;28;20390;-30
2022/09/18 04:24:55;;;;;;;;;;;10.80;99.90;;;;;;5000191;28;20321;-30
2022/09/18 04:27:21;;;;;;;;;;;10.80;99.90;;;;;;5008088;28;19921;-31
2022/09/18 04:29:46;;;;;;;;;;;10.80;99.90;;;;;;5019389;28;19918;-30
2022/09/18 04:32:12;;;;;;;;;;;10.80;99.90;;;;;;5031775;28;19917;-30
2022/09/18 04:34:38;;;;;;;;;;;10.80;99.90;;;;;;5018945;28;19970;-30
2022/09/18 04:37:03;;;;;;;;;;;10.70;99.90;;;;;;5020283;28;19917;-31
2022/09/18 04:39:31;;;;;;;;;;;10.70;99.90;;;;;;5015308;28;19932;-30
2022/09/18 04:41:58;;;;;;;;;;;10.70;99.90;;;;;;5005178;28;19924;-30
2022/09/18 04:44:24;;;;;;;;;;;10.70;99.90;;;;;;5012540;28;19927;-30
2022/09/18 04:46:49;;;;;;;;;;;10.70;99.90;;;;;;5026268;28;20290;-31
2022/09/18 04:49:15;;;;;;;;;;;10.70;99.90;;;;;;5027813;28;19924;-30
2022/09/18 04:51:40;;;;;;;;;;;10.70;99.90;;;;;;5015618;28;20356;-30
2022/09/18 04:54:06;;;;;;;;;;;10.70;99.90;;;;;;5005034;28;19924;-30
2022/09/18 04:56:32;;;;;;;;;;;10.70;99.90;;;;;;5045506;28;19921;-31
2022/09/18 04:58:58;;;;;;;;;;;10.70;99.90;;;;;;5016231;28;19921;-30
2022/09/18 05:01:24;;;;;;;;;;;10.70;99.90;;;;;;5019419;28;19917;-30
2022/09/18 05:03:50;;;;;;;;;;;10.70;99.90;;;;;;5012758;28;19968;-30
2022/09/18 05:06:15;;;;;;;;;;;10.70;99.90;;;;;;5011957;28;19975;-30
2022/09/18 05:08:41;;;;;;;;;;;10.70;99.90;;;;;;5017613;28;19917;-30
2022/09/18 05:11:06;;;;;;;;;;;10.70;99.90;;;;;;5015644;28;19917;-30
2022/09/18 05:13:32;;;;;;;;;;;10.70;99.90;;;;;;5014107;28;20425;-31
2022/09/18 05:15:59;;;;;;;;;;;10.70;99.90;;;;;;5027554;28;19971;-30
2022/09/18 05:18:24;;;;;;;;;;;10.70;99.90;;;;;;5014706;28;20011;-30
2022/09/18 05:20:50;;;;;;;;;;;10.70;99.90;;;;;;5014302;28;20015;-31
2022/09/18 05:23:16;;;;;;;;;;;10.70;99.90;;;;;;5006719;28;19924;-30
2022/09/18 05:25:41;;;;;;;;;;;10.70;99.90;;;;;;5015126;28;20458;-30
2022/09/18 05:28:12;;;;;;;;;;;10.70;99.90;;;;;;4998068;28;19921;-30
2022/09/18 05:30:37;;;;;;;;;;;10.80;99.90;;;;;;5034843;28;20386;-30
2022/09/18 05:33:04;;;;;;;;;;;10.80;99.90;;;;;;5016641;28;19924;-30
2022/09/18 05:35:31;;;;;;;;;;;10.80;99.90;;;;;;5012229;28;20024;-30
2022/09/18 05:37:57;;;;;;;;;;;10.80;99.90;;;;;;5008105;28;20436;-30
2022/09/18 05:40:26;;;;;;;;;;;10.80;99.90;;;;;;5016754;28;19917;-30
2022/09/18 05:42:52;;;;;;;;;;;10.80;99.90;;;;;;5027985;28;20386;-30
2022/09/18 05:45:18;;;;;;;;;;;10.80;99.90;;;;;;5019334;28;20017;-31
2022/09/18 05:47:51;;;;;;;;;;;10.80;99.90;;;;;;5021047;28;20031;-30
2022/09/18 05:50:17;;;;;;;;;;;10.80;99.90;;;;;;5025287;28;19917;-30
2022/09/18 05:52:42;;;;;;;;;;;10.80;99.90;;;;;;5017136;28;19924;-30
2022/09/18 05:55:08;;;;;;;;;;;10.80;99.90;;;;;;5017384;28;19920;-31
2022/09/18 05:57:34;;;;;;;;;;;10.80;99.90;;;;;;5012390;28;20378;-30
2022/09/18 05:59:59;;;;;;;;;;;10.80;99.90;;;;;;5022545;28;20024;-31
2022/09/18 06:02:25;;;;;;;;;;;10.80;99.90;;;;;;5030790;28;19917;-30
2022/09/18 06:04:51;;;;;;;;;;;10.80;99.90;;;;;;5032976;28;20346;-30
2022/09/18 06:07:16;;;;;;;;;;;10.80;99.90;;;;;;5024100;28;19916;-30
2022/09/18 06:09:42;;;;;;;;;;;10.80;99.90;;;;;;5015986;28;19967;-31
2022/09/18 06:12:08;;;;;;;;;;;10.80;99.90;;;;;;5013799;28;19917;-31
2022/09/18 06:14:33;;;;;;;;;;;10.80;99.90;;;;;;4996779;28;19917;-30
2022/09/18 06:16:59;;;;;;;;;;;10.80;99.90;;;;;;5020221;28;19920;-30
2022/09/18 06:19:25;;;;;;;;;;;10.80;99.90;;;;;;5011750;28;20295;-30
2022/09/18 06:21:51;;;;;;;;;;;10.80;99.90;;;;;;5012941;28;19924;-31
2022/09/18 06:24:16;;;;;;;;;;;10.80;99.90;;;;;;5012916;28;19917;-31
2022/09/18 06:26:42;;;;;;;;;;;10.80;99.90;;;;;;4995525;28;19917;-30
2022/09/18 06:29:07;;;;;;;;;;;10.80;99.90;;;;;;5014844;28;19921;-30
2022/09/18 06:31:33;;;;;;;;;;;10.80;99.90;;;;;;5016113;28;20393;-30
2022/09/18 06:33:59;;;;;;;;;;;10.80;99.90;;;;;;5027396;28;19917;-31
2022/09/18 06:36:24;;;;;;;;;;;10.80;99.90;;;;;;4999371;28;19979;-31
2022/09/18 06:38:50;;;;;;;;;;;10.80;99.90;;;;;;5020312;28;19917;-30
2022/09/18 06:41:15;;;;;;;;;;;10.80;99.90;;;;;;5014087;28;19924;-30
2022/09/18 06:43:41;;;;;;;;;;;10.90;99.90;;;;;;5014492;28;19924;-30
2022/09/18 06:46:07;;;;;;;;;;;10.90;99.90;;;;;;5012744;28;20363;-31
2022/09/18 06:48:33;;;;;;;;;;;10.80;99.90;;;;;;5013438;28;20286;-30
2022/09/18 06:50:59;;;;;;;;;;;10.80;99.90;;;;;;5022474;28;19917;-31
2022/09/18 06:53:25;;;;;;;;;;;10.90;99.90;;;;;;5038232;28;20386;-30
2022/09/18 06:55:50;;;;;;;;;;;10.80;99.90;;;;;;5015849;28;19922;-30
2022/09/18 06:58:17;;;;;;;;;;;10.90;99.90;;;;;;5013771;28;20278;-30
2022/09/18 07:00:43;;;;;;;;;;;10.90;99.90;;;;;;5016915;28;19971;-30
2022/09/18 07:03:09;;;;;;;;;;;10.90;99.90;;;;;;4997281;28;20686;-30
2022/09/18 07:05:37;;;;;;;;;;;10.80;99.90;;;;;;5006760;28;19964;-30
2022/09/18 07:08:02;;;;;;;;;;;10.90;99.90;;;;;;5028869;28;19916;-30
2022/09/18 07:10:28;;;;;;;;;;;10.90;99.90;;;;;;5013531;28;19940;-30
2022/09/18 07:12:54;;;;;;;;;;;10.90;99.90;;;;;;5015687;28;19928;-30
2022/09/18 07:15:20;;;;;;;;;;;10.90;99.90;;;;;;5016334;28;19927;-30
2022/09/18 07:17:45;;;;;;;;;;;10.90;99.90;;;;;;5014070;28;19917;-31
2022/09/18 07:20:11;;;;;;;;;;;10.90;99.90;;;;;;5012209;28;20279;-30
2022/09/18 07:22:38;;;;;;;;;;;10.90;99.90;;;;;;5010855;28;20012;-30
2022/09/18 07:25:05;;;;;;;;;;;10.90;99.90;;;;;;5011702;28;19917;-31
2022/09/18 07:27:30;;;;;;;;;;;10.90;99.90;;;;;;5014973;28;20293;-30
2022/09/18 07:29:56;;;;;;;;;;;11.00;99.90;;;;;;5012016;28;19917;-31
2022/09/18 07:32:23;;;;;;;;;;;11.00;99.90;;;;;;5013080;28;19917;-31
2022/09/18 07:34:48;;;;;;;;;;;11.00;99.90;;;;;;5015318;28;19962;-31
2022/09/18 07:37:15;;;;;;;;;;;11.10;99.90;;;;;;5012729;28;19917;-31
2022/09/18 07:39:42;;;;;;;;;;;11.10;99.90;;;;;;5013186;28;19923;-31
2022/09/18 07:42:09;;;;;;;;;;;11.10;99.90;;;;;;5013516;28;19921;-32
2022/09/18 07:44:34;;;;;;;;;;;11.10;99.90;;;;;;5016905;28;19996;-32
2022/09/18 07:47:00;;;;;;;;;;;11.10;99.90;;;;;;5023539;28;19956;-30
2022/09/18 07:49:26;;;;;;;;;;;11.20;99.90;;;;;;5014803;28;19976;-29
2022/09/18 07:51:52;;;;;;;;;;;11.20;99.90;;;;;;5016312;28;19917;-29
2022/09/18 07:54:17;;;;;;;;;;;11.20;99.90;;;;;;5015399;28;20341;-29
2022/09/18 07:56:43;;;;;;;;;;;11.20;99.90;;;;;;5016250;28;19921;-32
2022/09/18 07:59:09;;;;;;;;;;;11.20;99.90;;;;;;5019794;28;19966;-32
2022/09/18 08:01:34;;;;;;;;;;;11.20;99.90;;;;;;5032275;28;19916;-31
2022/09/18 08:04:01;;;;;;;;;;;11.20;99.90;;;;;;5029294;28;20043;-31
2022/09/18 08:06:27;;;;;;;;;;;11.20;99.90;;;;;;5039764;28;19921;-31
2022/09/18 08:08:52;;;;;;;;;;;11.20;99.90;;;;;;5024436;28;19927;-30
2022/09/18 08:11:18;;;;;;;;;;;11.10;99.90;;;;;;5020584;28;20285;-30
2022/09/18 08:13:46;;;;;;;;;;;11.20;99.90;;;;;;5015413;28;19917;-30
2022/09/18 08:16:12;;;;;;;;;;;11.10;99.90;;;;;;5012388;28;20314;-30
2022/09/18 08:18:38;;;;;;;;;;;11.10;99.90;;;;;;5020238;28;19921;-30
2022/09/18 08:21:04;;;;;;;;;;;11.00;99.90;;;;;;5014359;28;19917;-30
2022/09/18 08:23:30;;;;;;;;;;;11.10;99.90;;;;;;5015325;28;20026;-30
2022/09/18 08:25:58;;;;;;;;;;;11.10;99.90;;;;;;5024011;28;19976;-31
2022/09/18 08:28:24;;;;;;;;;;;11.00;99.90;;;;;;5012638;28;20371;-30
2022/09/18 08:30:49;;;;;;;;;;;11.00;99.90;;;;;;5019345;28;19924;-30
2022/09/18 08:33:15;;;;;;;;;;;11.00;99.90;;;;;;5015388;28;19924;-30
2022/09/18 08:35:40;;;;;;;;;;;11.00;99.90;;;;;;5023389;28;19939;-30
2022/09/18 08:38:09;;;;;;;;;;;11.00;99.90;;;;;;5017032;28;19917;-30
2022/09/18 08:40:40;;;;;;;;;;;11.00;99.90;;;;;;5019331;28;19917;-30
2022/09/18 08:43:13;;;;;;;;;;;11.00;99.90;;;;;;5030091;28;20310;-30
2022/09/18 08:45:55;;;;;;;;;;;11.00;99.90;;;;;;5015627;28;20343;-30
2022/09/18 08:48:32;;;;;;;;;;;11.20;99.90;;;;;;5042038;28;20259;-30
2022/09/18 08:51:03;;;;;;;;;;;11.20;99.90;;;;;;5026998;28;19924;-30
2022/09/18 08:53:37;;;;;;;;;;;11.20;99.90;;;;;;5023811;28;20411;-31
2022/09/18 08:56:03;;;;;;;;;;;11.30;99.90;;;;;;5023867;28;20461;-30
2022/09/18 08:58:33;;;;;;;;;;;11.20;99.90;;;;;;5023990;28;19999;-30
2022/09/18 09:01:00;;;;;;;;;;;11.30;99.90;;;;;;5042317;28;19951;-30
2022/09/18 09:03:45;;;;;;;;;;;11.20;99.90;;;;;;5037513;28;19996;-30
2022/09/18 09:06:18;;;;;;;;;;;11.30;99.90;;;;;;5026883;28;19917;-30
2022/09/18 09:09:02;;;;;;;;;;;11.30;99.90;;;;;;5025984;28;20374;-30
2022/09/18 09:12:00;;;;;;;;;;;11.30;99.90;;;;;;5032970;28;20419;-31
2022/09/18 09:14:41;;;;;;;;;;;11.40;99.90;;;;;;5009788;28;19924;-31
2022/09/18 09:17:26;;;;;;;;;;;11.50;99.90;;;;;;5027634;28;19968;-30
2022/09/18 09:19:53;;;;;;;;;;;11.50;99.90;;;;;;5030806;28;19923;-31
2022/09/18 09:22:26;;;;;;;;;;;11.50;99.90;;;;;;5025717;28;19942;-31
2022/09/18 09:24:59;;;;;;;;;;;11.50;99.90;;;;;;5027623;28;19924;-30
2022/09/18 09:27:27;;;;;;;;;;;11.50;99.90;;;;;;5028706;28;20274;-30
2022/09/18 09:30:01;;;;;;;;;;;11.50;99.90;;;;;;5014065;28;19920;-30
2022/09/18 09:32:36;;;;;;;;;;;11.50;99.90;;;;;;5008808;28;20067;-30
2022/09/18 09:35:12;;;;;;;;;;;11.50;99.90;;;;;;5024638;28;20007;-30
2022/09/18 09:37:41;;;;;;;;;;;11.50;99.90;;;;;;5026059;28;19983;-30
2022/09/18 09:40:14;;;;;;;;;;;11.60;99.90;;;;;;5025835;28;19923;-31
2022/09/18 09:42:45;;;;;;;;;;;11.60;99.90;;;;;;4998383;28;20294;-31
2022/09/18 09:45:16;;;;;;;;;;;11.60;99.90;;;;;;5033105;28;19917;-32
2022/09/18 09:47:51;;;;;;;;;;;11.60;99.90;;;;;;5036112;28;19939;-31
2022/09/18 09:50:31;;;;;;;;;;;11.60;99.90;;;;;;5021095;28;20363;-31
2022/09/18 09:53:00;;;;;;;;;;;11.60;99.90;;;;;;5027937;28;19924;-31
2022/09/18 09:55:31;;;;;;;;;;;11.60;99.90;;;;;;5025872;28;19975;-31
2022/09/18 09:58:20;;;;;;;;;;;11.50;99.90;;;;;;5009876;28;19967;-31
2022/09/18 10:00:49;;;;;;;;;;;11.50;99.90;;;;;;5029100;28;20020;-31
2022/09/18 10:03:14;;;;;;;;;;;11.60;99.90;;;;;;5014297;28;20337;-31
2022/09/18 10:05:48;;;;;;;;;;;11.60;99.90;;;;;;5035099;28;19975;-32
2022/09/18 10:08:16;;;;;;;;;;;11.50;99.90;;;;;;5012701;28;19917;-31
2022/09/18 10:10:46;;;;;;;;;;;11.50;99.90;;;;;;5033626;28;19917;-32
2022/09/18 10:13:24;;;;;;;;;;;11.50;99.90;;;;;;5013764;28;19917;-31
2022/09/18 10:15:53;;;;;;;;;;;11.50;99.90;;;;;;5031339;28;19954;-31
2022/09/18 10:18:24;;;;;;;;;;;11.50;99.90;;;;;;5010848;28;19960;-31
2022/09/18 10:20:53;;;;;;;;;;;11.50;99.90;;;;;;5017317;28;19917;-31
2022/09/18 10:23:25;;;;;;;;;;;11.50;99.90;;;;;;5019595;28;20030;-31
2022/09/18 10:25:56;;;;;;;;;;;11.50;99.90;;;;;;5011253;28;19917;-32
2022/09/18 10:28:24;;;;;;;;;;;11.60;99.90;;;;;;4997739;28;19999;-31
2022/09/18 10:31:00;;;;;;;;;;;11.60;99.90;;;;;;5015462;28;19924;-31
2022/09/18 10:33:35;;;;;;;;;;;11.60;99.90;;;;;;5024837;28;19946;-31
2022/09/18 10:36:13;;;;;;;;;;;11.60;99.90;;;;;;4996259;28;19957;-31
2022/09/18 10:38:41;;;;;;;;;;;11.60;99.90;;;;;;5026513;28;19921;-31
2022/09/18 10:41:26;;;;;;;;;;;11.60;99.90;;;;;;5013322;28;19917;-32
2022/09/18 10:43:58;;;;;;;;;;;11.60;99.90;;;;;;5024417;28;19925;-31
2022/09/18 10:46:29;;;;;;;;;;;11.70;99.90;;;;;;5017058;28;19917;-31
2022/09/18 10:48:56;;;;;;;;;;;11.70;99.90;;;;;;5014882;28;20382;-31
2022/09/18 10:51:24;;;;;;;;;;;11.70;99.90;;;;;;5012607;28;19917;-31
2022/09/18 10:54:16;;;;;;;;;;;11.80;99.90;;;;;;5017612;28;20402;-31
2022/09/18 10:56:42;;;;;;;;;;;11.70;99.90;;;;;;5015634;28;19921;-31
2022/09/18 10:59:34;;;;;;;;;;;11.80;99.90;;;;;;5009854;28;19929;-32
2022/09/18 11:02:01;;;;;;;;;;;11.80;99.90;;;;;;5008563;28;19948;-31
2022/09/18 11:04:27;;;;;;;;;;;11.90;99.90;;;;;;5012853;28;20417;-31
2022/09/18 11:06:54;;;;;;;;;;;11.90;99.90;;;;;;5013410;28;20409;-31
2022/09/18 11:09:29;;;;;;;;;;;11.90;99.90;;;;;;5013089;28;19917;-32
2022/09/18 11:11:54;;;;;;;;;;;12.00;99.90;;;;;;5009048;28;19917;-32
2022/09/18 11:14:28;;;;;;;;;;;12.00;99.90;;;;;;5010408;28;19924;-32
2022/09/18 11:16:56;;;;;;;;;;;12.10;99.90;;;;;;5014718;28;19920;-32
2022/09/18 11:19:26;;;;;;;;;;;12.10;99.90;;;;;;5012550;28;19917;-31
2022/09/18 11:21:54;;;;;;;;;;;12.10;99.90;;;;;;5019133;28;19917;-31
2022/09/18 11:24:20;;;;;;;;;;;12.10;99.90;;;;;;5015991;28;20409;-32
2022/09/18 11:26:50;;;;;;;;;;;12.10;99.90;;;;;;5014080;28;19975;-31
2022/09/18 11:29:18;;;;;;;;;;;12.10;99.90;;;;;;5013188;28;19917;-31
2022/09/18 11:31:50;;;;;;;;;;;12.10;99.90;;;;;;5015230;28;19928;-31
2022/09/18 11:34:20;;;;;;;;;;;12.10;99.90;;;;;;5028815;28;19924;-32
2022/09/18 11:36:50;;;;;;;;;;;12.10;99.90;;;;;;5024172;28;20465;-31
2022/09/18 11:39:19;;;;;;;;;;;12.10;99.90;;;;;;5021722;28;20306;-31
2022/09/18 11:41:48;;;;;;;;;;;12.10;99.90;;;;;;5025552;28;19917;-32
2022/09/18 11:44:27;;;;;;;;;;;12.20;99.90;;;;;;5001266;28;19957;-31
2022/09/18 11:47:18;;;;;;;;;;;12.20;99.90;;;;;;5025764;28;19921;-32
2022/09/18 11:49:49;;;;;;;;;;;12.30;99.90;;;;;;5010690;28;19924;-31
2022/09/18 11:52:21;;;;;;;;;;;12.30;99.90;;;;;;5016434;28;19917;-32
2022/09/18 11:55:02;;;;;;;;;;;12.40;99.90;;;;;;5030260;28;19921;-31
2022/09/18 11:57:37;;;;;;;;;;;12.40;99.90;;;;;;5016207;28;20362;-31
2022/09/18 12:00:11;;;;;;;;;;;12.50;99.90;;;;;;5019643;28;20374;-32
2022/09/18 12:02:52;;;;;;;;;;;12.60;99.90;;;;;;5019776;28;19917;-31
2022/09/18 12:05:19;;;;;;;;;;;12.60;99.90;;;;;;5031269;28;19949;-31
2022/09/18 12:07:51;;;;;;;;;;;12.70;99.90;;;;;;5017917;28;20081;-31
2022/09/18 12:10:26;;;;;;;;;;;12.80;99.90;;;;;;5037664;28;19916;-31
2022/09/18 12:13:00;;;;;;;;;;;12.90;99.90;;;;;;5021305;28;19921;-31
2022/09/18 12:15:32;;;;;;;;;;;13.00;99.90;;;;;;5019440;28;19921;-32
2022/09/18 12:18:03;;;;;;;;;;;13.10;99.90;;;;;;5019126;28;19921;-32
2022/09/18 12:20:28;;;;;;;;;;;13.10;99.90;;;;;;5016811;28;19942;-32
2022/09/18 12:22:55;;;;;;;;;;;13.20;99.90;;;;;;5036724;28;19916;-32
2022/09/18 12:25:41;;;;;;;;;;;13.20;99.90;;;;;;5016470;28;20411;-31
2022/09/18 12:28:28;;;;;;;;;;;13.20;99.90;;;;;;5015299;28;20286;-31
2022/09/18 12:31:14;;;;;;;;;;;13.30;99.90;;;;;;5024866;28;19921;-31
2022/09/18 12:33:58;;;;;;;;;;;13.40;99.90;;;;;;5007374;28;20391;-31
2022/09/18 12:36:43;;;;;;;;;;;13.30;99.90;;;;;;5012291;28;19921;-32
2022/09/18 12:39:27;;;;;;;;;;;13.40;99.90;;;;;;5030621;28;20028;-32
2022/09/18 12:41:59;;;;;;;;;;;13.40;99.90;;;;;;5032576;28;19921;-32
2022/09/18 12:44:31;;;;;;;;;;;13.40;99.90;;;;;;5015657;28;19924;-31
2022/09/18 12:47:16;;;;;;;;;;;13.60;99.90;;;;;;5027789;28;19989;-31
2022/09/18 12:49:47;;;;;;;;;;;13.60;99.90;;;;;;5022478;28;19998;-30
2022/09/18 12:52:13;;;;;;;;;;;13.60;99.90;;;;;;5026714;28;20370;-31
2022/09/18 12:54:42;;;;;;;;;;;13.60;99.90;;;;;;5026157;28;19939;-31
2022/09/18 12:57:14;;;;;;;;;;;13.50;99.90;;;;;;5028017;28;19925;-31
2022/09/18 12:59:42;;;;;;;;;;;13.60;99.90;;;;;;5025188;28;19917;-31
2022/09/18 13:02:08;;;;;;;;;;;13.60;99.90;;;;;;5028503;28;19921;-31
2022/09/18 13:04:43;;;;;;;;;;;13.60;99.90;;;;;;5029619;28;20302;-31
2022/09/18 13:07:11;;;;;;;;;;;13.60;99.90;;;;;;5013443;28;19944;-31
2022/09/18 13:09:43;;;;;;;;;;;13.60;99.90;;;;;;5027223;28;19925;-32
2022/09/18 13:12:15;;;;;;;;;;;13.50;99.90;;;;;;5030673;28;19917;-32
2022/09/18 13:14:47;;;;;;;;;;;13.50;99.90;;;;;;5013829;28;19924;-32
2022/09/18 13:17:18;;;;;;;;;;;13.50;99.90;;;;;;5017419;28;20294;-32
2022/09/18 13:19:49;;;;;;;;;;;13.50;99.90;;;;;;5015283;28;19924;-31
2022/09/18 13:22:18;;;;;;;;;;;13.40;99.90;;;;;;5017324;28;19925;-31
2022/09/18 13:24:45;;;;;;;;;;;13.40;99.90;;;;;;5022553;28;19917;-31
2022/09/18 13:27:13;;;;;;;;;;;13.40;99.90;;;;;;5019488;28;19959;-31
2022/09/18 13:29:50;;;;;;;;;;;13.30;99.90;;;;;;5019736;28;19974;-31
2022/09/18 13:32:18;;;;;;;;;;;13.30;99.90;;;;;;5036986;28;19978;-31
2022/09/18 13:34:50;;;;;;;;;;;13.30;99.90;;;;;;5016404;28;19924;-31
2022/09/18 13:37:16;;;;;;;;;;;13.30;99.90;;;;;;5029122;28;19929;-31
2022/09/18 13:39:47;;;;;;;;;;;13.20;99.90;;;;;;5014289;28;19932;-32
2022/09/18 13:42:13;;;;;;;;;;;13.20;99.90;;;;;;5015024;28;19992;-31
2022/09/18 13:44:39;;;;;;;;;;;13.30;99.90;;;;;;5012743;28;20035;-32
2022/09/18 13:47:09;;;;;;;;;;;13.30;99.90;;;;;;5018440;28;20397;-31
2022/09/18 13:49:40;;;;;;;;;;;13.30;99.90;;;;;;5014507;28;19916;-31
2022/09/18 13:52:24;;;;;;;;;;;13.30;99.90;;;;;;5014914;28;19924;-32
2022/09/18 13:55:15;;;;;;;;;;;13.30;99.90;;;;;;5031871;28;19917;-32
2022/09/18 13:57:41;;;;;;;;;;;13.20;99.90;;;;;;5006099;28;19921;-31
2022/09/18 14:00:16;;;;;;;;;;;13.20;99.90;;;;;;5012683;28;19917;-31
2022/09/18 14:02:42;;;;;;;;;;;13.20;99.90;;;;;;5030014;28;19917;-31
2022/09/18 14:05:26;;;;;;;;;;;13.30;99.90;;;;;;5015482;28;19990;-31
2022/09/18 14:07:52;;;;;;;;;;;13.20;99.90;;;;;;5029377;28;19975;-31
2022/09/18 14:10:26;;;;;;;;;;;13.20;99.90;;;;;;5023353;28;20441;-31
2022/09/18 14:13:21;;;;;;;;;;;13.20;99.90;;;;;;5011163;28;19924;-31
2022/09/18 14:15:52;;;;;;;;;;;13.20;99.90;;;;;;4999848;28;19921;-31
2022/09/18 14:18:27;;;;;;;;;;;13.10;99.90;;;;;;5030557;28;19927;-31
2022/09/18 14:20:55;;;;;;;;;;;13.10;99.90;;;;;;5021095;28;20008;-31
2022/09/18 14:23:34;;;;;;;;;;;13.20;99.90;;;;;;4999264;28;19925;-31
2022/09/18 14:26:00;;;;;;;;;;;13.20;99.90;;;;;;5021683;28;19996;-31
2022/09/18 14:28:27;;;;;;;;;;;13.20;99.90;;;;;;5007316;28;19917;-31
2022/09/18 14:31:12;;;;;;;;;;;13.20;99.90;;;;;;5012004;28;20291;-31
2022/09/18 14:33:39;;;;;;;;;;;13.20;99.90;;;;;;5009598;28;20015;-31